Trail du Salagou - 22/04/2017

24km

335 participants classés


Retour au Sommaire - Signaler une erreur - Faire défiler





1 2 3 4 5 6 7 /fin /tout

page suivante ->

Pl Do. Nom - Surname Prénom - Name S-Cat /cat Club - Team TEMPS - Time Km/h /sx
1 913 LEY ANTOINE MSE 1 team ibex/endurance shop montpellier 01:39:09 14,5 1
2 908 PROSPERI BASTIEN MSE 2   01:44:46 13,7 2
3 924 ROVERCH EMMANUEL MSE 3   01:46:45 13,5 3
4 666 METHOT ANTOINE MSE 4 AC BOURG-ST-ANDEOL PIERRELATTE 01:47:57 13,3 4
5 876 RIVET PASCAL MV1 1 fouladous balaruc les bains 01:48:03 13,3 5
6 1000 BASTOUL LUCAS MSE 5   01:49:34 13,1 6
7 726 LESTRADE LARY MSE 6   01:49:38 13,1 7
8 836 HOF BRUNO MV1 2 SA AUTUN 01:49:43 13,1 8
9 819 GACHON AURELIEN MSE 7 athletique club bourp pierrelatte 01:50:26 13,0 9
10 983 FONT DAVID MSE 8   01:50:47 13,0 10
11 901 BAUDEGARD JÉRÔME MSE 9 FOULÉES SAUSSINOISES 01:51:22 12,9 11
12 765 VANNESTE JULIEN MSE 10 martigné briand 01:51:26 12,9 12
13 701 BERNARD MARC MSE 11 SATUC 01:52:32 12,8 13
14 912 PEREZ LAURENT MSE 12   01:52:36 12,8 14
15 777 ORLIAC FRANCOIS MV1 3 SAINT MATHIEU ATHLÉTIC 01:52:45 12,8 15
16 882 LANGLOIS BENJAMIN MSE 13 MAT 01:52:57 12,7 16
17 659 O'NEILL CÉDRIC MSE 14   01:53:45 12,7 17
18 915 PERRIER NICOLAS MV1 4 ASPH TRIATHLON 01:55:23 12,5 18
19 786 DJEBLI NASSIM MSE 15   01:56:20 12,4 19
20 995 CHALIER JEAN-MARC MV2 1   01:56:35 12,4 20
21 869 GENEIX FRÉDÉRIC MV1 5 RUN IN CRES 01:56:49 12,3 21
22 679 LANGON XAVIER MV1 6   01:57:31 12,3 22
23 872 DOUZIECH SYLVAIN MSE 16 MARC 01:57:40 12,2 23
24 722 FALCONE FREDERIC MV2 2 ASPTT AUXERRE 01:57:43 12,2 24
25 787 SAHUC JULIEN MSE 17   01:58:28 12,2 25
26 793 HERNANDEZ NICOLAS MV1 7   01:58:44 12,1 26
27 708 MARTINEZ OLIVIER MV1 8 TAM MONTADY 01:58:47 12,1 27
28 945 ROMERO FRÉDÉRIC MV1 9 Aqualove 01:58:48 12,1 28
29 839 BEAURAIN LÉONARD MSE 18   01:58:55 12,1 29
30 768 BALAN DAMIEN MSE 19 NIGHT RUN MONTPELLIER 01:58:57 12,1 30
31 932 CLAUSS FRANCIS MV1 10 RUN IN CRES 01:59:23 12,1 31
32 852 CORPART ANTOINE MSE 20   02:00:30 11,9 32
33 972 ROCHER SÉBASTIEN MSE 21 MAGUELONE JOGGING 02:01:04 11,9 33
34 738 ANDREU DAVID MSE 22   02:01:17 11,9 34
35 713 BERTET BENJAMIN MSE 23   02:01:31 11,9 35
36 962 MOROZAN ROBERT MV1 11 TAM MONTADY 02:01:34 11,8 36
37 937 COQUARD CHRISTOPHE MV1 12 Kite Windsurf Maguelone 02:02:07 11,8 37
38 667 SIDER FABRICE MV1 13 SALON TRIATHLON 02:03:19 11,7 38
39 733 LESCURE YVAN MSE 24 Century 21 Agence des Halles 02:03:54 11,6 39
40 776 ROUSSILLON STÉPHANE MV1 14 Les bipèdes de la Vaunage 02:03:54 11,6 40
41 844 DURBIZE OLIVIER MV1 15   02:04:33 11,6 41
42 759 FONCROSE PASCAL MV1 16 Team globetrailers 02:04:35 11,6 42
43 953 CRON CHRISTOPHE MV2 3   02:04:45 11,5 43
44 734 MORATA CAMILLE MSE 25   02:04:49 11,5 44
45 785 SAROBERT CYRIL MV1 17 team sarobert 02:05:03 11,5 45
46 969 FRANCESKIN NICOLAS MSE 26   02:05:33 11,5 46
47 955 JAKUBCZYK STEVEN MSE 27 VO2 TRIATHLON 02:05:34 11,5 47
48 970 DA COSTA JULIEN MV1 18 Freelance Team 02:06:17 11,4 48
49 938 FAUTRERO THOMAD MSE 28 LES FOULEES SAUSSINOISES 02:06:29 11,4 49
50 808 CABROL ARNAUD MV1 19   02:06:30 11,4 50

Aucun commentaires pour le moment, donnez votre avis, vos impressions avant, pendant! et après la course

Déjà membre? Identifiez-vous pour commenter l'épreuve ou créer un compte